sensor_id;sensor_type;location;lat;lon;timestamp;temperature;humidity
3954;DHT22;1991;48.682;9.030;2023-12-14T00:02:03;5.40;99.90
3954;DHT22;1991;48.682;9.030;2023-12-14T00:04:28;5.40;99.90
3954;DHT22;1991;48.682;9.030;2023-12-14T00:06:54;5.40;99.90
3954;DHT22;1991;48.682;9.030;2023-12-14T00:09:19;5.40;99.90
3954;DHT22;1991;48.682;9.030;2023-12-14T00:11:45;5.50;99.90
3954;DHT22;1991;48.682;9.030;2023-12-14T00:14:10;5.50;99.90
3954;DHT22;1991;48.682;9.030;2023-12-14T00:16:36;5.50;99.90
3954;DHT22;1991;48.682;9.030;2023-12-14T00:19:02;5.60;99.90
3954;DHT22;1991;48.682;9.030;2023-12-14T00:21:28;5.60;99.90
3954;DHT22;1991;48.682;9.030;2023-12-14T00:23:53;5.60;99.90
3954;DHT22;1991;48.682;9.030;2023-12-14T00:26:19;5.70;99.90
3954;DHT22;1991;48.682;9.030;2023-12-14T00:28:44;5.60;99.90
3954;DHT22;1991;48.682;9.030;2023-12-14T00:31:10;5.70;99.90
3954;DHT22;1991;48.682;9.030;2023-12-14T00:33:36;5.70;99.90
3954;DHT22;1991;48.682;9.030;2023-12-14T00:36:01;5.80;99.90
3954;DHT22;1991;48.682;9.030;2023-12-14T00:38:27;5.80;99.90
3954;DHT22;1991;48.682;9.030;2023-12-14T00:40:52;5.90;99.90
3954;DHT22;1991;48.682;9.030;2023-12-14T00:43:18;5.80;99.90
3954;DHT22;1991;48.682;9.030;2023-12-14T00:45:44;5.90;99.90
3954;DHT22;1991;48.682;9.030;2023-12-14T00:48:09;5.90;99.90
3954;DHT22;1991;48.682;9.030;2023-12-14T00:50:35;5.90;99.90
3954;DHT22;1991;48.682;9.030;2023-12-14T00:53:00;5.80;99.90
3954;DHT22;1991;48.682;9.030;2023-12-14T00:55:26;5.80;99.90
3954;DHT22;1991;48.682;9.030;2023-12-14T00:57:51;5.90;99.90
3954;DHT22;1991;48.682;9.030;2023-12-14T01:00:18;5.80;99.90
3954;DHT22;1991;48.682;9.030;2023-12-14T01:02:43;5.80;99.90
3954;DHT22;1991;48.682;9.030;2023-12-14T01:05:09;5.70;99.90
3954;DHT22;1991;48.682;9.030;2023-12-14T01:07:35;5.70;99.90
3954;DHT22;1991;48.682;9.030;2023-12-14T01:10:01;5.70;99.90
3954;DHT22;1991;48.682;9.030;2023-12-14T01:12:27;5.80;99.90
3954;DHT22;1991;48.682;9.030;2023-12-14T01:14:53;5.70;99.90
3954;DHT22;1991;48.682;9.030;2023-12-14T01:17:18;5.70;99.90
3954;DHT22;1991;48.682;9.030;2023-12-14T01:19:44;5.70;99.90
3954;DHT22;1991;48.682;9.030;2023-12-14T01:22:10;5.70;99.90
3954;DHT22;1991;48.682;9.030;2023-12-14T01:24:35;5.60;99.90
3954;DHT22;1991;48.682;9.030;2023-12-14T01:27:01;5.60;99.90
3954;DHT22;1991;48.682;9.030;2023-12-14T01:29:27;5.60;99.90
3954;DHT22;1991;48.682;9.030;2023-12-14T01:31:52;5.70;99.90
3954;DHT22;1991;48.682;9.030;2023-12-14T01:34:18;5.70;99.90
3954;DHT22;1991;48.682;9.030;2023-12-14T01:36:43;5.60;99.90
3954;DHT22;1991;48.682;9.030;2023-12-14T01:39:09;5.50;99.90
3954;DHT22;1991;48.682;9.030;2023-12-14T01:41:34;5.50;99.90
3954;DHT22;1991;48.682;9.030;2023-12-14T01:44:00;5.40;99.90
3954;DHT22;1991;48.682;9.030;2023-12-14T01:46:25;5.40;99.90
3954;DHT22;1991;48.682;9.030;2023-12-14T01:48:51;5.40;99.90
3954;DHT22;1991;48.682;9.030;2023-12-14T01:51:18;5.40;99.90
3954;DHT22;1991;48.682;9.030;2023-12-14T01:53:44;5.50;99.90
3954;DHT22;1991;48.682;9.030;2023-12-14T01:56:09;5.50;99.90
3954;DHT22;1991;48.682;9.030;2023-12-14T01:58:35;5.60;99.90
3954;DHT22;1991;48.682;9.030;2023-12-14T02:01:05;5.60;99.90
3954;DHT22;1991;48.682;9.030;2023-12-14T02:03:33;5.70;99.90
3954;DHT22;1991;48.682;9.030;2023-12-14T02:05:59;5.70;99.90
3954;DHT22;1991;48.682;9.030;2023-12-14T02:08:27;5.70;99.90
3954;DHT22;1991;48.682;9.030;2023-12-14T02:10:52;5.70;99.90
3954;DHT22;1991;48.682;9.030;2023-12-14T02:13:18;5.80;99.90
3954;DHT22;1991;48.682;9.030;2023-12-14T02:15:43;5.80;99.90
3954;DHT22;1991;48.682;9.030;2023-12-14T02:18:09;5.80;99.90
3954;DHT22;1991;48.682;9.030;2023-12-14T02:20:34;5.80;99.90
3954;DHT22;1991;48.682;9.030;2023-12-14T02:23:00;5.80;99.90
3954;DHT22;1991;48.682;9.030;2023-12-14T02:25:27;5.90;99.90
3954;DHT22;1991;48.682;9.030;2023-12-14T02:27:53;5.90;99.90
3954;DHT22;1991;48.682;9.030;2023-12-14T02:30:19;5.90;99.90
3954;DHT22;1991;48.682;9.030;2023-12-14T02:32:45;5.80;99.90
3954;DHT22;1991;48.682;9.030;2023-12-14T02:35:10;5.80;99.90
3954;DHT22;1991;48.682;9.030;2023-12-14T02:37:36;5.70;99.90
3954;DHT22;1991;48.682;9.030;2023-12-14T02:40:03;5.70;99.90
3954;DHT22;1991;48.682;9.030;2023-12-14T02:42:29;5.70;99.90
3954;DHT22;1991;48.682;9.030;2023-12-14T02:44:56;5.70;99.90
3954;DHT22;1991;48.682;9.030;2023-12-14T02:47:22;5.80;99.90
3954;DHT22;1991;48.682;9.030;2023-12-14T02:49:47;5.90;99.90
3954;DHT22;1991;48.682;9.030;2023-12-14T02:52:13;5.90;99.90
3954;DHT22;1991;48.682;9.030;2023-12-14T02:54:39;5.90;99.90
3954;DHT22;1991;48.682;9.030;2023-12-14T02:57:05;5.80;99.90
3954;DHT22;1991;48.682;9.030;2023-12-14T02:59:31;5.90;99.90
3954;DHT22;1991;48.682;9.030;2023-12-14T03:01:56;5.80;99.90
3954;DHT22;1991;48.682;9.030;2023-12-14T03:04:22;5.80;99.90
3954;DHT22;1991;48.682;9.030;2023-12-14T03:06:47;5.80;99.90
3954;DHT22;1991;48.682;9.030;2023-12-14T03:09:13;5.80;99.90
3954;DHT22;1991;48.682;9.030;2023-12-14T03:11:38;5.90;99.90
3954;DHT22;1991;48.682;9.030;2023-12-14T03:14:04;5.80;99.90
3954;DHT22;1991;48.682;9.030;2023-12-14T03:16:30;5.90;99.90
3954;DHT22;1991;48.682;9.030;2023-12-14T03:18:55;5.90;99.90
3954;DHT22;1991;48.682;9.030;2023-12-14T03:21:22;5.90;99.90
3954;DHT22;1991;48.682;9.030;2023-12-14T03:23:48;5.90;99.90
3954;DHT22;1991;48.682;9.030;2023-12-14T03:26:14;5.90;99.90
3954;DHT22;1991;48.682;9.030;2023-12-14T03:28:40;5.90;99.90
3954;DHT22;1991;48.682;9.030;2023-12-14T03:31:05;5.90;99.90
3954;DHT22;1991;48.682;9.030;2023-12-14T03:33:31;5.90;99.90
3954;DHT22;1991;48.682;9.030;2023-12-14T03:35:56;5.90;99.90
3954;DHT22;1991;48.682;9.030;2023-12-14T03:38:22;5.90;99.90
3954;DHT22;1991;48.682;9.030;2023-12-14T03:40:48;5.90;99.90
3954;DHT22;1991;48.682;9.030;2023-12-14T03:43:13;5.80;99.90
3954;DHT22;1991;48.682;9.030;2023-12-14T03:45:39;5.80;99.90
3954;DHT22;1991;48.682;9.030;2023-12-14T03:48:05;5.90;99.90
3954;DHT22;1991;48.682;9.030;2023-12-14T03:50:30;5.90;99.90
3954;DHT22;1991;48.682;9.030;2023-12-14T03:52:58;5.90;99.90
3954;DHT22;1991;48.682;9.030;2023-12-14T03:55:23;5.90;99.90
3954;DHT22;1991;48.682;9.030;2023-12-14T03:57:49;5.90;99.90
3954;DHT22;1991;48.682;9.030;2023-12-14T04:00:15;5.90;99.90
3954;DHT22;1991;48.682;9.030;2023-12-14T04:02:40;5.90;99.90
3954;DHT22;1991;48.682;9.030;2023-12-14T04:05:07;5.90;99.90
3954;DHT22;1991;48.682;9.030;2023-12-14T04:07:37;5.90;99.90
3954;DHT22;1991;48.682;9.030;2023-12-14T04:10:07;6.10;99.90
3954;DHT22;1991;48.682;9.030;2023-12-14T04:12:34;6.00;99.90
3954;DHT22;1991;48.682;9.030;2023-12-14T04:14:59;6.00;99.90
3954;DHT22;1991;48.682;9.030;2023-12-14T04:17:25;6.10;99.90
3954;DHT22;1991;48.682;9.030;2023-12-14T04:19:50;6.10;99.90
3954;DHT22;1991;48.682;9.030;2023-12-14T04:22:16;6.10;99.90
3954;DHT22;1991;48.682;9.030;2023-12-14T04:24:41;6.00;99.90
3954;DHT22;1991;48.682;9.030;2023-12-14T04:27:07;6.00;99.90
3954;DHT22;1991;48.682;9.030;2023-12-14T04:29:32;6.10;99.90
3954;DHT22;1991;48.682;9.030;2023-12-14T04:31:58;6.00;99.90
3954;DHT22;1991;48.682;9.030;2023-12-14T04:34:23;6.00;99.90
3954;DHT22;1991;48.682;9.030;2023-12-14T04:36:49;6.10;99.90
3954;DHT22;1991;48.682;9.030;2023-12-14T04:39:15;6.10;99.90
3954;DHT22;1991;48.682;9.030;2023-12-14T04:41:42;6.10;99.90
3954;DHT22;1991;48.682;9.030;2023-12-14T04:44:08;6.20;99.90
3954;DHT22;1991;48.682;9.030;2023-12-14T04:46:35;6.20;99.90
3954;DHT22;1991;48.682;9.030;2023-12-14T04:49:01;6.20;99.90
3954;DHT22;1991;48.682;9.030;2023-12-14T04:51:26;6.20;99.90
3954;DHT22;1991;48.682;9.030;2023-12-14T04:53:52;6.20;99.90
3954;DHT22;1991;48.682;9.030;2023-12-14T04:56:18;6.20;99.90
3954;DHT22;1991;48.682;9.030;2023-12-14T04:58:43;6.20;99.90
3954;DHT22;1991;48.682;9.030;2023-12-14T05:01:09;6.20;99.90
3954;DHT22;1991;48.682;9.030;2023-12-14T05:03:35;6.20;99.90
3954;DHT22;1991;48.682;9.030;2023-12-14T05:06:01;6.20;99.90
3954;DHT22;1991;48.682;9.030;2023-12-14T05:08:26;6.20;99.90
3954;DHT22;1991;48.682;9.030;2023-12-14T05:10:52;6.20;99.90
3954;DHT22;1991;48.682;9.030;2023-12-14T05:13:17;6.20;99.90
3954;DHT22;1991;48.682;9.030;2023-12-14T05:15:43;6.20;99.90
3954;DHT22;1991;48.682;9.030;2023-12-14T05:18:09;6.10;99.90
3954;DHT22;1991;48.682;9.030;2023-12-14T05:20:35;6.10;99.90
3954;DHT22;1991;48.682;9.030;2023-12-14T05:23:01;6.20;99.90
3954;DHT22;1991;48.682;9.030;2023-12-14T05:25:27;6.20;99.90
3954;DHT22;1991;48.682;9.030;2023-12-14T05:27:52;6.20;99.90
3954;DHT22;1991;48.682;9.030;2023-12-14T05:30:18;6.10;99.90
3954;DHT22;1991;48.682;9.030;2023-12-14T05:32:44;6.10;99.90
3954;DHT22;1991;48.682;9.030;2023-12-14T05:35:10;6.10;99.90
3954;DHT22;1991;48.682;9.030;2023-12-14T05:37:35;6.20;99.90
3954;DHT22;1991;48.682;9.030;2023-12-14T05:40:02;6.20;99.90
3954;DHT22;1991;48.682;9.030;2023-12-14T05:42:27;6.10;99.90
3954;DHT22;1991;48.682;9.030;2023-12-14T05:44:53;6.10;99.90
3954;DHT22;1991;48.682;9.030;2023-12-14T05:47:19;6.10;99.90
3954;DHT22;1991;48.682;9.030;2023-12-14T05:49:45;6.10;99.90
3954;DHT22;1991;48.682;9.030;2023-12-14T05:52:11;6.10;99.90
3954;DHT22;1991;48.682;9.030;2023-12-14T05:54:37;6.10;99.90
3954;DHT22;1991;48.682;9.030;2023-12-14T05:57:03;6.00;99.90
3954;DHT22;1991;48.682;9.030;2023-12-14T05:59:29;6.00;99.90
3954;DHT22;1991;48.682;9.030;2023-12-14T06:01:58;6.10;99.90
3954;DHT22;1991;48.682;9.030;2023-12-14T06:04:25;6.10;99.90
3954;DHT22;1991;48.682;9.030;2023-12-14T06:06:51;6.10;99.90
3954;DHT22;1991;48.682;9.030;2023-12-14T06:09:16;6.10;99.90
3954;DHT22;1991;48.682;9.030;2023-12-14T06:11:44;6.20;99.90
3954;DHT22;1991;48.682;9.030;2023-12-14T06:14:10;6.10;99.90
3954;DHT22;1991;48.682;9.030;2023-12-14T06:16:35;6.20;99.90
3954;DHT22;1991;48.682;9.030;2023-12-14T06:19:01;6.20;99.90
3954;DHT22;1991;48.682;9.030;2023-12-14T06:21:26;6.10;99.90
3954;DHT22;1991;48.682;9.030;2023-12-14T06:23:55;6.20;99.90
3954;DHT22;1991;48.682;9.030;2023-12-14T06:26:21;6.20;99.90
3954;DHT22;1991;48.682;9.030;2023-12-14T06:28:46;6.20;99.90
3954;DHT22;1991;48.682;9.030;2023-12-14T06:31:16;6.20;99.90
3954;DHT22;1991;48.682;9.030;2023-12-14T06:33:42;6.20;99.90
3954;DHT22;1991;48.682;9.030;2023-12-14T06:36:10;6.30;99.90
3954;DHT22;1991;48.682;9.030;2023-12-14T06:38:39;6.20;99.90
3954;DHT22;1991;48.682;9.030;2023-12-14T06:41:06;6.30;99.90
3954;DHT22;1991;48.682;9.030;2023-12-14T06:43:32;6.30;99.90
3954;DHT22;1991;48.682;9.030;2023-12-14T06:45:57;6.30;99.90
3954;DHT22;1991;48.682;9.030;2023-12-14T06:48:23;6.30;99.90
3954;DHT22;1991;48.682;9.030;2023-12-14T06:50:48;6.30;99.90
3954;DHT22;1991;48.682;9.030;2023-12-14T06:53:14;6.30;99.90
3954;DHT22;1991;48.682;9.030;2023-12-14T06:55:41;6.30;99.90
3954;DHT22;1991;48.682;9.030;2023-12-14T06:58:06;6.30;99.90
3954;DHT22;1991;48.682;9.030;2023-12-14T07:00:37;6.30;99.90
3954;DHT22;1991;48.682;9.030;2023-12-14T07:03:02;6.20;99.90
3954;DHT22;1991;48.682;9.030;2023-12-14T07:05:29;6.20;99.90
3954;DHT22;1991;48.682;9.030;2023-12-14T07:07:54;6.30;99.90
3954;DHT22;1991;48.682;9.030;2023-12-14T07:10:21;6.30;99.90
3954;DHT22;1991;48.682;9.030;2023-12-14T07:12:47;6.20;99.90
3954;DHT22;1991;48.682;9.030;2023-12-14T07:15:13;6.30;99.90
3954;DHT22;1991;48.682;9.030;2023-12-14T07:17:38;6.30;99.90
3954;DHT22;1991;48.682;9.030;2023-12-14T07:20:05;6.40;99.90
3954;DHT22;1991;48.682;9.030;2023-12-14T07:22:31;6.30;99.90
3954;DHT22;1991;48.682;9.030;2023-12-14T07:24:57;6.30;99.90
3954;DHT22;1991;48.682;9.030;2023-12-14T07:27:22;6.30;99.90
3954;DHT22;1991;48.682;9.030;2023-12-14T07:29:48;6.30;99.90
3954;DHT22;1991;48.682;9.030;2023-12-14T07:32:14;6.40;99.90
3954;DHT22;1991;48.682;9.030;2023-12-14T07:34:39;6.40;99.90
3954;DHT22;1991;48.682;9.030;2023-12-14T07:37:05;6.40;99.90
3954;DHT22;1991;48.682;9.030;2023-12-14T07:39:31;6.40;99.90
3954;DHT22;1991;48.682;9.030;2023-12-14T07:41:57;6.40;99.90
3954;DHT22;1991;48.682;9.030;2023-12-14T07:44:22;6.40;99.90
3954;DHT22;1991;48.682;9.030;2023-12-14T07:46:51;6.40;99.90
3954;DHT22;1991;48.682;9.030;2023-12-14T07:49:17;6.40;99.90
3954;DHT22;1991;48.682;9.030;2023-12-14T07:51:51;6.50;99.90
3954;DHT22;1991;48.682;9.030;2023-12-14T07:54:17;6.50;99.90
3954;DHT22;1991;48.682;9.030;2023-12-14T07:56:44;6.60;99.90
3954;DHT22;1991;48.682;9.030;2023-12-14T07:59:09;6.60;99.90
3954;DHT22;1991;48.682;9.030;2023-12-14T08:01:37;6.60;99.90
3954;DHT22;1991;48.682;9.030;2023-12-14T08:04:03;6.60;99.90
3954;DHT22;1991;48.682;9.030;2023-12-14T08:06:29;6.70;99.90
3954;DHT22;1991;48.682;9.030;2023-12-14T08:08:55;6.70;99.90
3954;DHT22;1991;48.682;9.030;2023-12-14T08:11:23;6.70;99.90
3954;DHT22;1991;48.682;9.030;2023-12-14T08:13:49;6.80;99.90
3954;DHT22;1991;48.682;9.030;2023-12-14T08:16:15;6.80;99.90
3954;DHT22;1991;48.682;9.030;2023-12-14T08:18:45;6.80;99.90
3954;DHT22;1991;48.682;9.030;2023-12-14T08:21:12;6.90;99.90
3954;DHT22;1991;48.682;9.030;2023-12-14T08:23:39;6.90;99.90
3954;DHT22;1991;48.682;9.030;2023-12-14T08:26:06;7.00;99.90
3954;DHT22;1991;48.682;9.030;2023-12-14T08:28:31;7.00;99.90
3954;DHT22;1991;48.682;9.030;2023-12-14T08:30:57;7.10;99.90
3954;DHT22;1991;48.682;9.030;2023-12-14T08:36:06;7.10;99.90
3954;DHT22;1991;48.682;9.030;2023-12-14T08:38:32;7.20;99.90
3954;DHT22;1991;48.682;9.030;2023-12-14T08:40:58;7.20;99.90
3954;DHT22;1991;48.682;9.030;2023-12-14T08:43:23;7.40;99.90
3954;DHT22;1991;48.682;9.030;2023-12-14T08:45:50;7.60;99.90
3954;DHT22;1991;48.682;9.030;2023-12-14T08:48:16;7.80;99.90
3954;DHT22;1991;48.682;9.030;2023-12-14T08:50:58;8.00;99.90
3954;DHT22;1991;48.682;9.030;2023-12-14T08:53:39;8.10;99.90
3954;DHT22;1991;48.682;9.030;2023-12-14T08:56:05;8.20;99.90
3954;DHT22;1991;48.682;9.030;2023-12-14T08:58:31;8.20;99.90
3954;DHT22;1991;48.682;9.030;2023-12-14T09:00:56;8.10;99.90
3954;DHT22;1991;48.682;9.030;2023-12-14T09:03:22;8.00;99.90
3954;DHT22;1991;48.682;9.030;2023-12-14T09:05:48;7.90;99.90
3954;DHT22;1991;48.682;9.030;2023-12-14T09:08:13;7.80;99.90
3954;DHT22;1991;48.682;9.030;2023-12-14T09:10:39;7.80;99.90
3954;DHT22;1991;48.682;9.030;2023-12-14T09:15:40;7.90;99.90
3954;DHT22;1991;48.682;9.030;2023-12-14T09:18:06;7.90;99.90
3954;DHT22;1991;48.682;9.030;2023-12-14T09:20:31;7.90;99.90
3954;DHT22;1991;48.682;9.030;2023-12-14T09:22:57;7.90;99.90
3954;DHT22;1991;48.682;9.030;2023-12-14T09:25:22;7.80;99.90
3954;DHT22;1991;48.682;9.030;2023-12-14T09:27:48;7.90;99.90
3954;DHT22;1991;48.682;9.030;2023-12-14T09:30:14;7.90;99.90
3954;DHT22;1991;48.682;9.030;2023-12-14T09:32:39;7.90;99.90
3954;DHT22;1991;48.682;9.030;2023-12-14T09:35:05;7.90;99.90
3954;DHT22;1991;48.682;9.030;2023-12-14T09:37:32;8.00;99.90
3954;DHT22;1991;48.682;9.030;2023-12-14T09:39:57;7.90;99.90
3954;DHT22;1991;48.682;9.030;2023-12-14T09:42:25;7.90;99.90
3954;DHT22;1991;48.682;9.030;2023-12-14T09:44:52;7.80;99.90
3954;DHT22;1991;48.682;9.030;2023-12-14T09:47:18;7.90;99.90
3954;DHT22;1991;48.682;9.030;2023-12-14T09:49:45;8.00;99.90
3954;DHT22;1991;48.682;9.030;2023-12-14T09:52:11;8.20;99.90
3954;DHT22;1991;48.682;9.030;2023-12-14T09:54:37;8.30;99.90
3954;DHT22;1991;48.682;9.030;2023-12-14T09:57:03;8.70;99.90
3954;DHT22;1991;48.682;9.030;2023-12-14T09:59:28;8.50;99.90
3954;DHT22;1991;48.682;9.030;2023-12-14T10:02:08;8.50;99.90
3954;DHT22;1991;48.682;9.030;2023-12-14T10:04:35;8.70;99.90
3954;DHT22;1991;48.682;9.030;2023-12-14T10:07:01;9.30;99.90
3954;DHT22;1991;48.682;9.030;2023-12-14T10:09:32;9.60;99.90
3954;DHT22;1991;48.682;9.030;2023-12-14T10:12:08;9.90;99.90
3954;DHT22;1991;48.682;9.030;2023-12-14T10:14:35;9.90;99.90
3954;DHT22;1991;48.682;9.030;2023-12-14T10:17:27;10.00;99.90
3954;DHT22;1991;48.682;9.030;2023-12-14T10:19:57;10.00;99.90
3954;DHT22;1991;48.682;9.030;2023-12-14T10:22:26;10.00;99.90
3954;DHT22;1991;48.682;9.030;2023-12-14T10:24:53;9.60;99.90
3954;DHT22;1991;48.682;9.030;2023-12-14T10:27:19;9.50;99.90
3954;DHT22;1991;48.682;9.030;2023-12-14T10:29:46;9.50;99.90
3954;DHT22;1991;48.682;9.030;2023-12-14T10:32:12;9.70;99.90
3954;DHT22;1991;48.682;9.030;2023-12-14T10:34:38;10.00;99.90
3954;DHT22;1991;48.682;9.030;2023-12-14T10:37:06;10.30;99.90
3954;DHT22;1991;48.682;9.030;2023-12-14T10:39:34;10.80;99.90
3954;DHT22;1991;48.682;9.030;2023-12-14T10:42:03;11.50;99.90
3954;DHT22;1991;48.682;9.030;2023-12-14T10:44:30;11.90;99.90
3954;DHT22;1991;48.682;9.030;2023-12-14T10:47:00;12.10;99.90
3954;DHT22;1991;48.682;9.030;2023-12-14T10:49:26;12.10;99.90
3954;DHT22;1991;48.682;9.030;2023-12-14T10:51:54;11.80;99.90
3954;DHT22;1991;48.682;9.030;2023-12-14T10:54:21;11.60;99.90
3954;DHT22;1991;48.682;9.030;2023-12-14T10:56:48;11.40;99.90
3954;DHT22;1991;48.682;9.030;2023-12-14T10:59:17;11.40;99.90
3954;DHT22;1991;48.682;9.030;2023-12-14T11:01:43;11.40;99.90
3954;DHT22;1991;48.682;9.030;2023-12-14T11:04:08;11.50;99.90
3954;DHT22;1991;48.682;9.030;2023-12-14T11:06:40;11.70;99.90
3954;DHT22;1991;48.682;9.030;2023-12-14T11:09:07;12.70;99.90
3954;DHT22;1991;48.682;9.030;2023-12-14T11:14:18;16.50;99.90
3954;DHT22;1991;48.682;9.030;2023-12-14T11:16:44;19.70;94.10
3954;DHT22;1991;48.682;9.030;2023-12-14T11:22:08;24.30;71.00
3954;DHT22;1991;48.682;9.030;2023-12-14T11:24:32;27.30;57.70
3954;DHT22;1991;48.682;9.030;2023-12-14T11:27:04;24.40;57.20
3954;DHT22;1991;48.682;9.030;2023-12-14T11:29:30;21.20;60.00
3954;DHT22;1991;48.682;9.030;2023-12-14T11:31:55;19.30;67.20
3954;DHT22;1991;48.682;9.030;2023-12-14T11:34:27;17.70;73.50
3954;DHT22;1991;48.682;9.030;2023-12-14T11:36:54;16.20;78.60
3954;DHT22;1991;48.682;9.030;2023-12-14T11:39:20;15.20;83.30
3954;DHT22;1991;48.682;9.030;2023-12-14T11:42:03;14.40;82.80
3954;DHT22;1991;48.682;9.030;2023-12-14T11:44:29;13.90;87.10
3954;DHT22;1991;48.682;9.030;2023-12-14T11:46:56;13.60;89.90
3954;DHT22;1991;48.682;9.030;2023-12-14T11:49:24;13.20;91.40
3954;DHT22;1991;48.682;9.030;2023-12-14T11:52:15;12.90;92.20
3954;DHT22;1991;48.682;9.030;2023-12-14T11:54:42;12.40;94.50
3954;DHT22;1991;48.682;9.030;2023-12-14T11:57:08;11.80;95.20
3954;DHT22;1991;48.682;9.030;2023-12-14T11:59:35;11.30;98.00
3954;DHT22;1991;48.682;9.030;2023-12-14T12:02:01;11.00;99.90
3954;DHT22;1991;48.682;9.030;2023-12-14T12:04:27;10.70;99.90
3954;DHT22;1991;48.682;9.030;2023-12-14T12:07:00;10.50;99.90
3954;DHT22;1991;48.682;9.030;2023-12-14T12:09:36;10.40;99.90
3954;DHT22;1991;48.682;9.030;2023-12-14T12:12:05;10.30;99.90
3954;DHT22;1991;48.682;9.030;2023-12-14T12:14:31;10.70;99.90
3954;DHT22;1991;48.682;9.030;2023-12-14T12:16:57;11.10;99.90
3954;DHT22;1991;48.682;9.030;2023-12-14T12:19:23;11.30;99.90
3954;DHT22;1991;48.682;9.030;2023-12-14T12:21:49;11.30;99.90
3954;DHT22;1991;48.682;9.030;2023-12-14T12:24:14;11.10;99.90
3954;DHT22;1991;48.682;9.030;2023-12-14T12:26:40;10.90;99.90
3954;DHT22;1991;48.682;9.030;2023-12-14T12:29:07;10.70;99.90
3954;DHT22;1991;48.682;9.030;2023-12-14T12:31:32;10.60;99.90
3954;DHT22;1991;48.682;9.030;2023-12-14T12:33:59;10.40;99.90
3954;DHT22;1991;48.682;9.030;2023-12-14T12:36:25;10.30;99.90
3954;DHT22;1991;48.682;9.030;2023-12-14T12:38:50;10.20;99.90
3954;DHT22;1991;48.682;9.030;2023-12-14T12:41:16;10.00;99.90
3954;DHT22;1991;48.682;9.030;2023-12-14T12:43:43;10.10;99.90
3954;DHT22;1991;48.682;9.030;2023-12-14T12:46:09;10.10;99.90
3954;DHT22;1991;48.682;9.030;2023-12-14T12:48:35;10.10;99.90
3954;DHT22;1991;48.682;9.030;2023-12-14T12:51:01;10.20;99.90
3954;DHT22;1991;48.682;9.030;2023-12-14T12:53:27;10.40;99.90
3954;DHT22;1991;48.682;9.030;2023-12-14T12:55:52;10.50;99.90
3954;DHT22;1991;48.682;9.030;2023-12-14T12:58:18;10.60;99.90
3954;DHT22;1991;48.682;9.030;2023-12-14T13:00:43;10.90;99.90
3954;DHT22;1991;48.682;9.030;2023-12-14T13:03:09;10.90;99.90
3954;DHT22;1991;48.682;9.030;2023-12-14T13:05:35;12.80;99.90
3954;DHT22;1991;48.682;9.030;2023-12-14T13:08:01;13.10;99.90
3954;DHT22;1991;48.682;9.030;2023-12-14T13:10:26;12.80;99.90
3954;DHT22;1991;48.682;9.030;2023-12-14T13:12:55;12.60;99.90
3954;DHT22;1991;48.682;9.030;2023-12-14T13:15:22;12.60;99.90
3954;DHT22;1991;48.682;9.030;2023-12-14T13:17:52;12.20;99.90
3954;DHT22;1991;48.682;9.030;2023-12-14T13:20:18;11.70;99.90
3954;DHT22;1991;48.682;9.030;2023-12-14T13:22:46;11.70;99.90
3954;DHT22;1991;48.682;9.030;2023-12-14T13:25:12;11.50;99.90
3954;DHT22;1991;48.682;9.030;2023-12-14T13:27:37;11.00;99.90
3954;DHT22;1991;48.682;9.030;2023-12-14T13:30:03;10.50;99.90
3954;DHT22;1991;48.682;9.030;2023-12-14T13:32:29;10.10;99.90
3954;DHT22;1991;48.682;9.030;2023-12-14T13:34:55;9.80;99.90
3954;DHT22;1991;48.682;9.030;2023-12-14T13:37:21;9.60;99.90
3954;DHT22;1991;48.682;9.030;2023-12-14T13:39:46;9.30;99.90
3954;DHT22;1991;48.682;9.030;2023-12-14T13:42:13;9.10;99.90
3954;DHT22;1991;48.682;9.030;2023-12-14T13:44:41;8.90;99.90
3954;DHT22;1991;48.682;9.030;2023-12-14T13:47:06;8.70;99.90
3954;DHT22;1991;48.682;9.030;2023-12-14T13:49:32;8.50;99.90
3954;DHT22;1991;48.682;9.030;2023-12-14T13:51:58;8.30;99.90
3954;DHT22;1991;48.682;9.030;2023-12-14T13:54:24;8.30;99.90
3954;DHT22;1991;48.682;9.030;2023-12-14T13:56:49;8.20;99.90
3954;DHT22;1991;48.682;9.030;2023-12-14T13:59:15;8.20;99.90
3954;DHT22;1991;48.682;9.030;2023-12-14T14:01:40;8.10;99.90
3954;DHT22;1991;48.682;9.030;2023-12-14T14:04:06;8.00;99.90
3954;DHT22;1991;48.682;9.030;2023-12-14T14:06:32;8.00;99.90
3954;DHT22;1991;48.682;9.030;2023-12-14T14:08:57;7.90;99.90
3954;DHT22;1991;48.682;9.030;2023-12-14T14:11:23;7.90;99.90
3954;DHT22;1991;48.682;9.030;2023-12-14T14:13:49;7.80;99.90
3954;DHT22;1991;48.682;9.030;2023-12-14T14:16:14;7.80;99.90
3954;DHT22;1991;48.682;9.030;2023-12-14T14:18:40;7.80;99.90
3954;DHT22;1991;48.682;9.030;2023-12-14T14:21:06;7.70;99.90
3954;DHT22;1991;48.682;9.030;2023-12-14T14:23:36;7.70;99.90
3954;DHT22;1991;48.682;9.030;2023-12-14T14:26:02;7.70;99.90
3954;DHT22;1991;48.682;9.030;2023-12-14T14:28:28;7.70;99.90
3954;DHT22;1991;48.682;9.030;2023-12-14T14:30:54;7.70;99.90
3954;DHT22;1991;48.682;9.030;2023-12-14T14:33:19;7.70;99.90
3954;DHT22;1991;48.682;9.030;2023-12-14T14:35:45;7.70;99.90
3954;DHT22;1991;48.682;9.030;2023-12-14T14:38:12;7.70;99.90
3954;DHT22;1991;48.682;9.030;2023-12-14T14:40:38;7.70;99.90
3954;DHT22;1991;48.682;9.030;2023-12-14T14:43:04;7.70;99.90
3954;DHT22;1991;48.682;9.030;2023-12-14T14:45:30;7.70;99.90
3954;DHT22;1991;48.682;9.030;2023-12-14T14:47:55;7.60;99.90
3954;DHT22;1991;48.682;9.030;2023-12-14T14:50:21;7.60;99.90
3954;DHT22;1991;48.682;9.030;2023-12-14T14:52:47;7.60;99.90
3954;DHT22;1991;48.682;9.030;2023-12-14T14:55:13;7.60;99.90
3954;DHT22;1991;48.682;9.030;2023-12-14T14:57:39;7.50;99.90
3954;DHT22;1991;48.682;9.030;2023-12-14T15:00:06;7.50;99.90
3954;DHT22;1991;48.682;9.030;2023-12-14T15:02:31;7.40;99.90
3954;DHT22;1991;48.682;9.030;2023-12-14T15:04:57;7.40;99.90
3954;DHT22;1991;48.682;9.030;2023-12-14T15:07:23;7.30;99.90
3954;DHT22;1991;48.682;9.030;2023-12-14T15:09:48;7.30;99.90
3954;DHT22;1991;48.682;9.030;2023-12-14T15:12:14;7.20;99.90
3954;DHT22;1991;48.682;9.030;2023-12-14T15:14:39;7.20;99.90
3954;DHT22;1991;48.682;9.030;2023-12-14T15:17:05;7.20;99.90
3954;DHT22;1991;48.682;9.030;2023-12-14T15:19:30;7.20;99.90
3954;DHT22;1991;48.682;9.030;2023-12-14T15:21:56;7.20;99.90
3954;DHT22;1991;48.682;9.030;2023-12-14T15:24:21;7.20;99.90
3954;DHT22;1991;48.682;9.030;2023-12-14T15:26:48;7.20;99.90
3954;DHT22;1991;48.682;9.030;2023-12-14T15:29:14;7.20;99.90
3954;DHT22;1991;48.682;9.030;2023-12-14T15:31:40;7.10;99.90
3954;DHT22;1991;48.682;9.030;2023-12-14T15:34:06;7.20;99.90
3954;DHT22;1991;48.682;9.030;2023-12-14T15:36:33;7.10;99.90
3954;DHT22;1991;48.682;9.030;2023-12-14T15:39:02;7.10;99.90
3954;DHT22;1991;48.682;9.030;2023-12-14T15:41:28;7.10;99.90
3954;DHT22;1991;48.682;9.030;2023-12-14T15:43:54;7.00;99.90
3954;DHT22;1991;48.682;9.030;2023-12-14T15:46:19;7.00;99.90
3954;DHT22;1991;48.682;9.030;2023-12-14T15:48:45;7.00;99.90
3954;DHT22;1991;48.682;9.030;2023-12-14T15:51:11;6.90;99.90
3954;DHT22;1991;48.682;9.030;2023-12-14T15:53:37;6.90;99.90
3954;DHT22;1991;48.682;9.030;2023-12-14T15:56:23;6.90;99.90
3954;DHT22;1991;48.682;9.030;2023-12-14T15:58:52;6.80;99.90
3954;DHT22;1991;48.682;9.030;2023-12-14T16:01:18;7.60;99.90
3954;DHT22;1991;48.682;9.030;2023-12-14T16:03:43;7.70;99.90
3954;DHT22;1991;48.682;9.030;2023-12-14T16:06:10;6.80;99.90
3954;DHT22;1991;48.682;9.030;2023-12-14T16:08:35;6.70;99.90
3954;DHT22;1991;48.682;9.030;2023-12-14T16:11:02;6.70;99.90
3954;DHT22;1991;48.682;9.030;2023-12-14T16:13:28;6.60;99.90
3954;DHT22;1991;48.682;9.030;2023-12-14T16:15:59;6.60;99.90
3954;DHT22;1991;48.682;9.030;2023-12-14T16:18:27;6.60;99.90
3954;DHT22;1991;48.682;9.030;2023-12-14T16:20:53;6.60;99.90